sensor_id;sensor_type;location;lat;lon;timestamp;P1;durP1;ratioP1;P2;durP2;ratioP2
26201;SDS011;13944;28.562;77.188;2022-12-29T00:02:09;194.97;;;121.63;;
26201;SDS011;13944;28.562;77.188;2022-12-29T00:04:36;192.57;;;122.23;;
26201;SDS011;13944;28.562;77.188;2022-12-29T00:07:02;193.00;;;121.07;;
26201;SDS011;13944;28.562;77.188;2022-12-29T00:09:32;194.93;;;120.67;;
26201;SDS011;13944;28.562;77.188;2022-12-29T00:12:00;198.90;;;126.27;;
26201;SDS011;13944;28.562;77.188;2022-12-29T00:14:27;200.37;;;127.30;;
26201;SDS011;13944;28.562;77.188;2022-12-29T00:17:11;185.33;;;121.50;;
26201;SDS011;13944;28.562;77.188;2022-12-29T00:19:38;190.13;;;123.43;;
26201;SDS011;13944;28.562;77.188;2022-12-29T00:22:23;189.90;;;116.37;;
26201;SDS011;13944;28.562;77.188;2022-12-29T00:25:09;186.23;;;121.27;;
26201;SDS011;13944;28.562;77.188;2022-12-29T00:27:54;192.57;;;119.40;;
26201;SDS011;13944;28.562;77.188;2022-12-29T00:30:39;186.67;;;117.67;;
26201;SDS011;13944;28.562;77.188;2022-12-29T00:33:31;180.50;;;118.63;;
26201;SDS011;13944;28.562;77.188;2022-12-29T00:36:21;184.13;;;116.87;;
26201;SDS011;13944;28.562;77.188;2022-12-29T00:38:57;188.37;;;115.30;;
26201;SDS011;13944;28.562;77.188;2022-12-29T00:41:42;183.60;;;115.67;;
26201;SDS011;13944;28.562;77.188;2022-12-29T00:44:27;177.43;;;114.63;;
26201;SDS011;13944;28.562;77.188;2022-12-29T00:46:54;174.23;;;115.47;;
26201;SDS011;13944;28.562;77.188;2022-12-29T00:49:20;182.60;;;116.20;;
26201;SDS011;13944;28.562;77.188;2022-12-29T00:51:57;180.10;;;114.77;;
26201;SDS011;13944;28.562;77.188;2022-12-29T00:54:24;179.80;;;115.73;;
26201;SDS011;13944;28.562;77.188;2022-12-29T00:56:51;184.20;;;115.73;;
26201;SDS011;13944;28.562;77.188;2022-12-29T00:59:18;180.87;;;115.83;;
26201;SDS011;13944;28.562;77.188;2022-12-29T01:01:45;196.43;;;114.90;;
26201;SDS011;13944;28.562;77.188;2022-12-29T01:04:12;190.80;;;118.73;;
26201;SDS011;13944;28.562;77.188;2022-12-29T01:06:39;189.80;;;120.73;;
26201;SDS011;13944;28.562;77.188;2022-12-29T01:09:06;186.10;;;118.00;;
26201;SDS011;13944;28.562;77.188;2022-12-29T01:11:52;195.83;;;122.13;;
26201;SDS011;13944;28.562;77.188;2022-12-29T01:14:19;195.67;;;122.30;;
26201;SDS011;13944;28.562;77.188;2022-12-29T01:16:46;192.20;;;124.40;;
26201;SDS011;13944;28.562;77.188;2022-12-29T01:19:13;206.77;;;129.00;;
26201;SDS011;13944;28.562;77.188;2022-12-29T01:21:39;203.50;;;129.10;;
26201;SDS011;13944;28.562;77.188;2022-12-29T01:24:06;204.80;;;129.67;;
26201;SDS011;13944;28.562;77.188;2022-12-29T01:26:33;195.03;;;122.73;;
26201;SDS011;13944;28.562;77.188;2022-12-29T01:28:59;199.87;;;128.03;;
26201;SDS011;13944;28.562;77.188;2022-12-29T01:31:26;205.77;;;123.70;;
26201;SDS011;13944;28.562;77.188;2022-12-29T01:33:52;226.13;;;132.53;;
26201;SDS011;13944;28.562;77.188;2022-12-29T01:36:19;199.17;;;124.03;;
26201;SDS011;13944;28.562;77.188;2022-12-29T01:38:46;191.23;;;123.20;;
26201;SDS011;13944;28.562;77.188;2022-12-29T01:41:13;197.17;;;126.57;;
26201;SDS011;13944;28.562;77.188;2022-12-29T01:46:51;201.50;;;123.83;;
26201;SDS011;13944;28.562;77.188;2022-12-29T01:49:10;193.53;;;122.83;;
26201;SDS011;13944;28.562;77.188;2022-12-29T01:52:00;198.50;;;119.93;;
26201;SDS011;13944;28.562;77.188;2022-12-29T01:54:26;232.17;;;126.07;;
26201;SDS011;13944;28.562;77.188;2022-12-29T01:56:55;223.40;;;125.87;;
26201;SDS011;13944;28.562;77.188;2022-12-29T01:59:24;209.00;;;123.80;;
26201;SDS011;13944;28.562;77.188;2022-12-29T02:01:52;230.93;;;124.10;;
26201;SDS011;13944;28.562;77.188;2022-12-29T02:04:19;253.70;;;130.55;;
26201;SDS011;13944;28.562;77.188;2022-12-29T02:07:01;230.57;;;122.07;;
26201;SDS011;13944;28.562;77.188;2022-12-29T02:09:31;199.63;;;121.97;;
26201;SDS011;13944;28.562;77.188;2022-12-29T02:11:58;194.00;;;116.00;;
26201;SDS011;13944;28.562;77.188;2022-12-29T02:14:25;197.13;;;114.33;;
26201;SDS011;13944;28.562;77.188;2022-12-29T02:19:43;188.10;;;113.90;;
26201;SDS011;13944;28.562;77.188;2022-12-29T02:22:18;186.80;;;116.57;;
26201;SDS011;13944;28.562;77.188;2022-12-29T02:32:36;187.03;;;113.23;;
26201;SDS011;13944;28.562;77.188;2022-12-29T02:35:07;184.57;;;109.30;;
26201;SDS011;13944;28.562;77.188;2022-12-29T02:40:15;176.23;;;107.17;;
26201;SDS011;13944;28.562;77.188;2022-12-29T02:42:50;170.13;;;105.53;;
26201;SDS011;13944;28.562;77.188;2022-12-29T02:45:37;165.13;;;104.60;;
26201;SDS011;13944;28.562;77.188;2022-12-29T02:48:09;168.20;;;104.07;;
26201;SDS011;13944;28.562;77.188;2022-12-29T02:50:39;178.37;;;104.47;;
26201;SDS011;13944;28.562;77.188;2022-12-29T02:53:11;163.83;;;103.93;;
26201;SDS011;13944;28.562;77.188;2022-12-29T02:55:39;166.67;;;104.43;;
26201;SDS011;13944;28.562;77.188;2022-12-29T02:58:13;167.43;;;103.90;;
26201;SDS011;13944;28.562;77.188;2022-12-29T03:00:48;172.60;;;105.90;;
26201;SDS011;13944;28.562;77.188;2022-12-29T03:08:23;184.80;;;110.60;;
26201;SDS011;13944;28.562;77.188;2022-12-29T03:18:51;186.13;;;107.77;;
26201;SDS011;13944;28.562;77.188;2022-12-29T03:21:27;170.73;;;105.03;;
26201;SDS011;13944;28.562;77.188;2022-12-29T03:24:17;186.03;;;104.43;;
26201;SDS011;13944;28.562;77.188;2022-12-29T03:26:44;169.10;;;101.77;;
26201;SDS011;13944;28.562;77.188;2022-12-29T03:29:11;174.90;;;102.37;;
26201;SDS011;13944;28.562;77.188;2022-12-29T03:31:38;165.77;;;99.40;;
26201;SDS011;13944;28.562;77.188;2022-12-29T03:34:06;166.33;;;99.10;;
26201;SDS011;13944;28.562;77.188;2022-12-29T03:36:36;168.80;;;100.43;;
26201;SDS011;13944;28.562;77.188;2022-12-29T03:39:11;173.47;;;104.50;;
26201;SDS011;13944;28.562;77.188;2022-12-29T03:41:39;169.13;;;101.57;;
26201;SDS011;13944;28.562;77.188;2022-12-29T03:44:07;181.40;;;103.63;;
26201;SDS011;13944;28.562;77.188;2022-12-29T03:46:36;172.90;;;103.27;;
26201;SDS011;13944;28.562;77.188;2022-12-29T03:49:03;167.87;;;102.00;;
26201;SDS011;13944;28.562;77.188;2022-12-29T03:51:29;164.40;;;101.73;;
26201;SDS011;13944;28.562;77.188;2022-12-29T03:53:56;167.07;;;102.17;;
26201;SDS011;13944;28.562;77.188;2022-12-29T03:56:22;171.47;;;104.87;;
26201;SDS011;13944;28.562;77.188;2022-12-29T03:58:49;167.97;;;102.47;;
26201;SDS011;13944;28.562;77.188;2022-12-29T04:01:15;178.50;;;106.17;;
26201;SDS011;13944;28.562;77.188;2022-12-29T04:03:42;172.47;;;108.23;;
26201;SDS011;13944;28.562;77.188;2022-12-29T04:06:09;181.90;;;107.17;;
26201;SDS011;13944;28.562;77.188;2022-12-29T04:08:35;177.07;;;106.27;;
26201;SDS011;13944;28.562;77.188;2022-12-29T04:11:02;180.53;;;107.27;;
26201;SDS011;13944;28.562;77.188;2022-12-29T04:13:29;175.10;;;107.40;;
26201;SDS011;13944;28.562;77.188;2022-12-29T04:15:56;169.17;;;104.50;;
26201;SDS011;13944;28.562;77.188;2022-12-29T04:18:22;165.07;;;103.40;;
26201;SDS011;13944;28.562;77.188;2022-12-29T04:20:49;166.97;;;101.43;;
26201;SDS011;13944;28.562;77.188;2022-12-29T04:23:25;173.53;;;103.57;;
26201;SDS011;13944;28.562;77.188;2022-12-29T04:25:51;165.13;;;103.87;;
26201;SDS011;13944;28.562;77.188;2022-12-29T04:28:18;165.07;;;102.67;;
26201;SDS011;13944;28.562;77.188;2022-12-29T04:30:45;174.27;;;106.73;;
26201;SDS011;13944;28.562;77.188;2022-12-29T04:33:12;175.67;;;105.73;;
26201;SDS011;13944;28.562;77.188;2022-12-29T04:35:39;170.60;;;105.03;;
26201;SDS011;13944;28.562;77.188;2022-12-29T04:38:05;167.63;;;104.37;;
26201;SDS011;13944;28.562;77.188;2022-12-29T04:40:32;171.17;;;104.73;;
26201;SDS011;13944;28.562;77.188;2022-12-29T04:42:58;169.83;;;103.57;;
26201;SDS011;13944;28.562;77.188;2022-12-29T04:45:25;174.00;;;105.67;;
26201;SDS011;13944;28.562;77.188;2022-12-29T04:47:51;169.10;;;105.03;;
26201;SDS011;13944;28.562;77.188;2022-12-29T04:50:18;162.17;;;102.43;;
26201;SDS011;13944;28.562;77.188;2022-12-29T04:52:44;169.70;;;104.13;;
26201;SDS011;13944;28.562;77.188;2022-12-29T04:55:11;168.50;;;102.77;;
26201;SDS011;13944;28.562;77.188;2022-12-29T04:57:38;167.00;;;103.90;;
26201;SDS011;13944;28.562;77.188;2022-12-29T05:00:04;169.47;;;106.17;;
26201;SDS011;13944;28.562;77.188;2022-12-29T05:02:31;168.50;;;106.37;;
26201;SDS011;13944;28.562;77.188;2022-12-29T05:04:58;167.80;;;105.47;;
26201;SDS011;13944;28.562;77.188;2022-12-29T05:07:24;160.50;;;102.33;;
26201;SDS011;13944;28.562;77.188;2022-12-29T05:09:51;169.80;;;105.10;;
26201;SDS011;13944;28.562;77.188;2022-12-29T05:12:18;183.70;;;106.83;;
26201;SDS011;13944;28.562;77.188;2022-12-29T05:14:44;176.33;;;104.93;;
26201;SDS011;13944;28.562;77.188;2022-12-29T05:17:11;191.33;;;105.37;;
26201;SDS011;13944;28.562;77.188;2022-12-29T05:19:37;167.80;;;103.07;;
26201;SDS011;13944;28.562;77.188;2022-12-29T05:22:04;183.33;;;106.33;;
26201;SDS011;13944;28.562;77.188;2022-12-29T05:24:30;172.10;;;107.87;;
26201;SDS011;13944;28.562;77.188;2022-12-29T05:26:57;188.27;;;106.83;;
26201;SDS011;13944;28.562;77.188;2022-12-29T05:29:23;184.40;;;108.70;;
26201;SDS011;13944;28.562;77.188;2022-12-29T05:31:50;174.87;;;109.63;;
26201;SDS011;13944;28.562;77.188;2022-12-29T05:34:16;178.40;;;111.10;;
26201;SDS011;13944;28.562;77.188;2022-12-29T05:36:43;177.93;;;109.83;;
26201;SDS011;13944;28.562;77.188;2022-12-29T05:39:09;171.23;;;106.10;;
26201;SDS011;13944;28.562;77.188;2022-12-29T05:41:36;180.70;;;107.90;;
26201;SDS011;13944;28.562;77.188;2022-12-29T05:44:02;164.93;;;106.13;;
26201;SDS011;13944;28.562;77.188;2022-12-29T05:46:29;176.47;;;107.10;;
26201;SDS011;13944;28.562;77.188;2022-12-29T05:48:56;178.53;;;110.77;;
26201;SDS011;13944;28.562;77.188;2022-12-29T05:51:23;169.37;;;103.37;;
26201;SDS011;13944;28.562;77.188;2022-12-29T05:53:49;159.50;;;98.97;;
26201;SDS011;13944;28.562;77.188;2022-12-29T05:56:16;160.07;;;100.27;;
26201;SDS011;13944;28.562;77.188;2022-12-29T05:58:42;154.77;;;98.27;;
26201;SDS011;13944;28.562;77.188;2022-12-29T06:01:09;152.60;;;96.70;;
26201;SDS011;13944;28.562;77.188;2022-12-29T06:03:35;156.17;;;95.00;;
26201;SDS011;13944;28.562;77.188;2022-12-29T06:06:02;140.13;;;83.77;;
26201;SDS011;13944;28.562;77.188;2022-12-29T06:08:28;136.57;;;82.53;;
26201;SDS011;13944;28.562;77.188;2022-12-29T06:10:55;131.57;;;81.13;;
26201;SDS011;13944;28.562;77.188;2022-12-29T06:13:21;127.33;;;79.37;;
26201;SDS011;13944;28.562;77.188;2022-12-29T06:15:48;121.10;;;73.03;;
26201;SDS011;13944;28.562;77.188;2022-12-29T06:18:15;127.27;;;74.43;;
26201;SDS011;13944;28.562;77.188;2022-12-29T06:20:42;126.53;;;78.27;;
26201;SDS011;13944;28.562;77.188;2022-12-29T06:23:09;137.33;;;83.57;;
26201;SDS011;13944;28.562;77.188;2022-12-29T06:25:37;131.27;;;80.73;;
26201;SDS011;13944;28.562;77.188;2022-12-29T06:28:04;142.63;;;73.27;;
26201;SDS011;13944;28.562;77.188;2022-12-29T06:30:31;130.73;;;74.10;;
26201;SDS011;13944;28.562;77.188;2022-12-29T06:32:58;121.63;;;70.97;;
26201;SDS011;13944;28.562;77.188;2022-12-29T06:35:25;119.07;;;72.17;;
26201;SDS011;13944;28.562;77.188;2022-12-29T06:37:51;123.60;;;71.30;;
26201;SDS011;13944;28.562;77.188;2022-12-29T06:40:18;122.43;;;66.93;;
26201;SDS011;13944;28.562;77.188;2022-12-29T06:42:44;102.73;;;51.57;;
26201;SDS011;13944;28.562;77.188;2022-12-29T06:45:11;49.60;;;26.73;;
26201;SDS011;13944;28.562;77.188;2022-12-29T06:47:37;42.00;;;23.90;;
26201;SDS011;13944;28.562;77.188;2022-12-29T06:50:04;52.70;;;31.33;;
26201;SDS011;13944;28.562;77.188;2022-12-29T06:52:31;86.97;;;47.53;;
26201;SDS011;13944;28.562;77.188;2022-12-29T06:54:57;91.23;;;53.13;;
26201;SDS011;13944;28.562;77.188;2022-12-29T06:57:24;94.10;;;55.27;;
26201;SDS011;13944;28.562;77.188;2022-12-29T06:59:54;95.50;;;53.67;;
26201;SDS011;13944;28.562;77.188;2022-12-29T07:02:21;91.70;;;52.53;;
26201;SDS011;13944;28.562;77.188;2022-12-29T07:04:50;93.90;;;52.73;;
26201;SDS011;13944;28.562;77.188;2022-12-29T07:07:20;85.33;;;52.33;;
26201;SDS011;13944;28.562;77.188;2022-12-29T07:09:46;88.03;;;53.10;;
26201;SDS011;13944;28.562;77.188;2022-12-29T07:12:13;91.83;;;50.90;;
26201;SDS011;13944;28.562;77.188;2022-12-29T07:14:39;97.33;;;51.90;;
26201;SDS011;13944;28.562;77.188;2022-12-29T07:17:06;84.13;;;51.97;;
26201;SDS011;13944;28.562;77.188;2022-12-29T07:19:33;84.80;;;52.07;;
26201;SDS011;13944;28.562;77.188;2022-12-29T07:21:59;111.67;;;52.90;;
26201;SDS011;13944;28.562;77.188;2022-12-29T07:24:26;101.93;;;51.37;;
26201;SDS011;13944;28.562;77.188;2022-12-29T07:26:53;85.30;;;50.20;;
26201;SDS011;13944;28.562;77.188;2022-12-29T07:29:19;87.47;;;50.77;;
26201;SDS011;13944;28.562;77.188;2022-12-29T07:31:46;94.03;;;52.40;;
26201;SDS011;13944;28.562;77.188;2022-12-29T07:34:12;85.40;;;53.93;;
26201;SDS011;13944;28.562;77.188;2022-12-29T07:36:39;86.80;;;54.03;;
26201;SDS011;13944;28.562;77.188;2022-12-29T07:39:05;86.67;;;53.23;;
26201;SDS011;13944;28.562;77.188;2022-12-29T07:41:32;95.27;;;54.40;;
26201;SDS011;13944;28.562;77.188;2022-12-29T07:43:59;93.23;;;53.80;;
26201;SDS011;13944;28.562;77.188;2022-12-29T07:46:26;86.73;;;53.20;;
26201;SDS011;13944;28.562;77.188;2022-12-29T07:48:53;100.67;;;57.07;;
26201;SDS011;13944;28.562;77.188;2022-12-29T07:51:19;95.63;;;56.90;;
26201;SDS011;13944;28.562;77.188;2022-12-29T07:53:46;98.57;;;55.30;;
26201;SDS011;13944;28.562;77.188;2022-12-29T07:56:12;90.93;;;55.57;;
26201;SDS011;13944;28.562;77.188;2022-12-29T07:58:39;100.37;;;59.93;;
26201;SDS011;13944;28.562;77.188;2022-12-29T08:01:05;97.40;;;58.07;;
26201;SDS011;13944;28.562;77.188;2022-12-29T08:03:32;98.07;;;56.87;;
26201;SDS011;13944;28.562;77.188;2022-12-29T08:05:59;107.33;;;59.37;;
26201;SDS011;13944;28.562;77.188;2022-12-29T08:08:25;109.87;;;62.07;;
26201;SDS011;13944;28.562;77.188;2022-12-29T08:10:52;102.83;;;61.23;;
26201;SDS011;13944;28.562;77.188;2022-12-29T08:13:18;103.40;;;63.63;;
26201;SDS011;13944;28.562;77.188;2022-12-29T08:15:45;98.57;;;61.73;;
26201;SDS011;13944;28.562;77.188;2022-12-29T08:18:11;97.07;;;57.67;;
26201;SDS011;13944;28.562;77.188;2022-12-29T08:20:38;104.87;;;60.97;;
26201;SDS011;13944;28.562;77.188;2022-12-29T08:23:04;103.80;;;60.20;;
26201;SDS011;13944;28.562;77.188;2022-12-29T08:25:31;111.17;;;64.10;;
26201;SDS011;13944;28.562;77.188;2022-12-29T08:27:57;105.77;;;64.77;;
26201;SDS011;13944;28.562;77.188;2022-12-29T08:30:24;102.10;;;62.27;;
26201;SDS011;13944;28.562;77.188;2022-12-29T08:32:50;109.77;;;63.13;;
26201;SDS011;13944;28.562;77.188;2022-12-29T08:35:17;101.73;;;61.73;;
26201;SDS011;13944;28.562;77.188;2022-12-29T08:37:43;116.00;;;64.07;;
26201;SDS011;13944;28.562;77.188;2022-12-29T08:40:10;119.60;;;69.87;;
26201;SDS011;13944;28.562;77.188;2022-12-29T08:42:37;132.27;;;74.23;;
26201;SDS011;13944;28.562;77.188;2022-12-29T08:45:03;128.80;;;74.60;;
26201;SDS011;13944;28.562;77.188;2022-12-29T08:47:30;125.60;;;72.73;;
26201;SDS011;13944;28.562;77.188;2022-12-29T08:49:57;111.33;;;69.80;;
26201;SDS011;13944;28.562;77.188;2022-12-29T08:52:23;116.83;;;68.77;;
26201;SDS011;13944;28.562;77.188;2022-12-29T08:54:50;101.80;;;65.20;;
26201;SDS011;13944;28.562;77.188;2022-12-29T08:57:16;115.87;;;70.87;;
26201;SDS011;13944;28.562;77.188;2022-12-29T08:59:43;117.77;;;71.13;;
26201;SDS011;13944;28.562;77.188;2022-12-29T09:02:12;128.20;;;72.77;;
26201;SDS011;13944;28.562;77.188;2022-12-29T09:04:39;135.37;;;74.63;;
26201;SDS011;13944;28.562;77.188;2022-12-29T09:07:05;120.13;;;69.40;;
26201;SDS011;13944;28.562;77.188;2022-12-29T09:09:32;128.33;;;72.27;;
26201;SDS011;13944;28.562;77.188;2022-12-29T09:11:59;129.53;;;72.03;;
26201;SDS011;13944;28.562;77.188;2022-12-29T09:14:25;127.17;;;71.63;;
26201;SDS011;13944;28.562;77.188;2022-12-29T09:16:52;121.00;;;72.03;;
26201;SDS011;13944;28.562;77.188;2022-12-29T09:19:37;129.47;;;70.53;;
26201;SDS011;13944;28.562;77.188;2022-12-29T09:22:04;118.90;;;67.87;;
26201;SDS011;13944;28.562;77.188;2022-12-29T09:24:30;117.07;;;70.47;;
26201;SDS011;13944;28.562;77.188;2022-12-29T09:26:57;114.23;;;71.90;;
26201;SDS011;13944;28.562;77.188;2022-12-29T09:29:24;115.53;;;70.63;;
26201;SDS011;13944;28.562;77.188;2022-12-29T09:31:50;143.70;;;77.97;;
26201;SDS011;13944;28.562;77.188;2022-12-29T09:34:17;145.17;;;79.77;;
26201;SDS011;13944;28.562;77.188;2022-12-29T09:36:43;126.50;;;77.73;;
26201;SDS011;13944;28.562;77.188;2022-12-29T09:39:10;126.20;;;74.53;;
26201;SDS011;13944;28.562;77.188;2022-12-29T09:46:38;143.17;;;78.80;;
26201;SDS011;13944;28.562;77.188;2022-12-29T09:49:26;139.80;;;78.93;;
26201;SDS011;13944;28.562;77.188;2022-12-29T09:51:55;137.30;;;79.20;;
26201;SDS011;13944;28.562;77.188;2022-12-29T09:56:58;152.93;;;87.27;;
26201;SDS011;13944;28.562;77.188;2022-12-29T09:59:46;168.83;;;88.97;;
26201;SDS011;13944;28.562;77.188;2022-12-29T10:04:57;167.37;;;91.37;;
26201;SDS011;13944;28.562;77.188;2022-12-29T10:07:36;150.33;;;89.30;;
26201;SDS011;13944;28.562;77.188;2022-12-29T10:17:53;159.30;;;92.23;;
26201;SDS011;13944;28.562;77.188;2022-12-29T10:25:41;190.10;;;108.90;;
26201;SDS011;13944;28.562;77.188;2022-12-29T10:28:17;213.87;;;120.07;;
26201;SDS011;13944;28.562;77.188;2022-12-29T10:30:46;209.70;;;125.47;;
26201;SDS011;13944;28.562;77.188;2022-12-29T10:33:15;228.37;;;135.67;;
26201;SDS011;13944;28.562;77.188;2022-12-29T10:35:43;221.53;;;134.73;;
26201;SDS011;13944;28.562;77.188;2022-12-29T10:43:07;249.17;;;152.67;;
26201;SDS011;13944;28.562;77.188;2022-12-29T10:45:39;264.23;;;153.80;;
26201;SDS011;13944;28.562;77.188;2022-12-29T10:48:10;257.57;;;152.30;;
26201;SDS011;13944;28.562;77.188;2022-12-29T10:50:40;253.03;;;152.53;;
26201;SDS011;13944;28.562;77.188;2022-12-29T10:53:08;255.30;;;153.50;;
26201;SDS011;13944;28.562;77.188;2022-12-29T10:55:39;258.90;;;157.53;;
26201;SDS011;13944;28.562;77.188;2022-12-29T10:58:09;271.43;;;159.80;;
26201;SDS011;13944;28.562;77.188;2022-12-29T11:00:37;281.17;;;162.70;;
26201;SDS011;13944;28.562;77.188;2022-12-29T11:05:40;275.93;;;157.47;;
26201;SDS011;13944;28.562;77.188;2022-12-29T11:08:16;272.03;;;156.37;;
26201;SDS011;13944;28.562;77.188;2022-12-29T11:10:44;270.10;;;159.37;;
26201;SDS011;13944;28.562;77.188;2022-12-29T11:13:31;260.60;;;157.23;;
26201;SDS011;13944;28.562;77.188;2022-12-29T11:15:58;267.10;;;156.27;;
26201;SDS011;13944;28.562;77.188;2022-12-29T11:18:38;276.67;;;160.37;;
26201;SDS011;13944;28.562;77.188;2022-12-29T11:21:06;283.80;;;162.53;;
26201;SDS011;13944;28.562;77.188;2022-12-29T11:23:38;273.43;;;159.37;;
26201;SDS011;13944;28.562;77.188;2022-12-29T11:28:42;249.80;;;156.30;;
26201;SDS011;13944;28.562;77.188;2022-12-29T11:31:10;280.07;;;162.80;;
26201;SDS011;13944;28.562;77.188;2022-12-29T11:33:38;263.50;;;155.03;;
26201;SDS011;13944;28.562;77.188;2022-12-29T11:36:05;264.00;;;157.37;;
26201;SDS011;13944;28.562;77.188;2022-12-29T11:38:36;266.33;;;157.17;;
26201;SDS011;13944;28.562;77.188;2022-12-29T11:41:03;253.37;;;153.03;;
26201;SDS011;13944;28.562;77.188;2022-12-29T11:43:31;269.40;;;153.27;;
26201;SDS011;13944;28.562;77.188;2022-12-29T11:45:59;270.37;;;156.23;;
26201;SDS011;13944;28.562;77.188;2022-12-29T11:48:32;263.57;;;154.23;;
26201;SDS011;13944;28.562;77.188;2022-12-29T11:50:59;280.33;;;158.53;;
26201;SDS011;13944;28.562;77.188;2022-12-29T11:55:56;269.07;;;156.40;;
26201;SDS011;13944;28.562;77.188;2022-12-29T11:58:31;266.33;;;158.27;;
26201;SDS011;13944;28.562;77.188;2022-12-29T12:01:00;272.40;;;158.83;;
26201;SDS011;13944;28.562;77.188;2022-12-29T12:03:27;287.13;;;159.00;;
26201;SDS011;13944;28.562;77.188;2022-12-29T12:06:05;292.00;;;159.70;;
26201;SDS011;13944;28.562;77.188;2022-12-29T12:08:53;282.43;;;161.63;;
26201;SDS011;13944;28.562;77.188;2022-12-29T12:11:22;298.27;;;162.57;;
26201;SDS011;13944;28.562;77.188;2022-12-29T12:16:36;283.13;;;161.73;;
26201;SDS011;13944;28.562;77.188;2022-12-29T12:19:10;280.83;;;164.13;;
26201;SDS011;13944;28.562;77.188;2022-12-29T12:21:40;278.50;;;166.67;;
26201;SDS011;13944;28.562;77.188;2022-12-29T12:24:15;305.93;;;176.70;;
26201;SDS011;13944;28.562;77.188;2022-12-29T12:26:49;319.90;;;187.87;;
26201;SDS011;13944;28.562;77.188;2022-12-29T12:29:19;330.83;;;193.10;;
26201;SDS011;13944;28.562;77.188;2022-12-29T12:31:59;333.57;;;198.97;;
26201;SDS011;13944;28.562;77.188;2022-12-29T12:34:30;321.97;;;194.33;;
26201;SDS011;13944;28.562;77.188;2022-12-29T12:37:10;309.97;;;194.03;;
26201;SDS011;13944;28.562;77.188;2022-12-29T12:47:46;334.67;;;210.87;;
26201;SDS011;13944;28.562;77.188;2022-12-29T13:00:31;360.53;;;229.73;;
26201;SDS011;13944;28.562;77.188;2022-12-29T13:10:59;345.63;;;226.60;;
26201;SDS011;13944;28.562;77.188;2022-12-29T13:13:35;359.80;;;235.17;;
26201;SDS011;13944;28.562;77.188;2022-12-29T13:21:34;369.17;;;251.30;;
26201;SDS011;13944;28.562;77.188;2022-12-29T13:24:12;399.13;;;261.13;;
26201;SDS011;13944;28.562;77.188;2022-12-29T13:26:51;400.07;;;261.47;;
26201;SDS011;13944;28.562;77.188;2022-12-29T13:29:23;395.83;;;263.70;;
26201;SDS011;13944;28.562;77.188;2022-12-29T13:36:59;399.70;;;268.77;;
26201;SDS011;13944;28.562;77.188;2022-12-29T13:39:30;405.57;;;274.07;;
26201;SDS011;13944;28.562;77.188;2022-12-29T13:41:58;422.67;;;278.23;;
26201;SDS011;13944;28.562;77.188;2022-12-29T13:44:27;419.87;;;282.03;;
26201;SDS011;13944;28.562;77.188;2022-12-29T13:46:54;415.10;;;276.87;;
26201;SDS011;13944;28.562;77.188;2022-12-29T13:49:22;427.53;;;284.43;;
26201;SDS011;13944;28.562;77.188;2022-12-29T13:51:51;428.33;;;285.03;;
26201;SDS011;13944;28.562;77.188;2022-12-29T13:54:43;409.57;;;281.17;;
26201;SDS011;13944;28.562;77.188;2022-12-29T13:57:29;420.47;;;279.03;;
26201;SDS011;13944;28.562;77.188;2022-12-29T13:59:59;425.67;;;289.03;;
26201;SDS011;13944;28.562;77.188;2022-12-29T14:07:49;433.37;;;285.27;;
26201;SDS011;13944;28.562;77.188;2022-12-29T14:10:27;421.57;;;287.33;;
26201;SDS011;13944;28.562;77.188;2022-12-29T14:13:11;409.47;;;280.77;;
26201;SDS011;13944;28.562;77.188;2022-12-29T14:15:38;421.53;;;284.80;;
26201;SDS011;13944;28.562;77.188;2022-12-29T14:20:35;423.10;;;286.07;;
26201;SDS011;13944;28.562;77.188;2022-12-29T14:28:22;423.43;;;285.67;;
26201;SDS011;13944;28.562;77.188;2022-12-29T14:30:51;449.17;;;290.90;;
26201;SDS011;13944;28.562;77.188;2022-12-29T14:33:18;444.17;;;293.23;;
26201;SDS011;13944;28.562;77.188;2022-12-29T14:35:47;431.43;;;290.13;;
26201;SDS011;13944;28.562;77.188;2022-12-29T14:38:18;443.47;;;293.07;;
26201;SDS011;13944;28.562;77.188;2022-12-29T14:40:46;443.43;;;293.53;;
26201;SDS011;13944;28.562;77.188;2022-12-29T14:43:20;439.23;;;290.87;;
26201;SDS011;13944;28.562;77.188;2022-12-29T14:45:55;440.63;;;290.30;;
26201;SDS011;13944;28.562;77.188;2022-12-29T14:48:56;447.07;;;296.40;;
26201;SDS011;13944;28.562;77.188;2022-12-29T14:51:34;450.87;;;298.93;;
26201;SDS011;13944;28.562;77.188;2022-12-29T14:54:34;438.93;;;298.77;;
26201;SDS011;13944;28.562;77.188;2022-12-29T14:56:48;445.40;;;300.43;;
26201;SDS011;13944;28.562;77.188;2022-12-29T14:59:15;435.73;;;292.30;;
26201;SDS011;13944;28.562;77.188;2022-12-29T15:01:44;441.97;;;298.37;;
26201;SDS011;13944;28.562;77.188;2022-12-29T15:04:22;456.60;;;304.90;;
26201;SDS011;13944;28.562;77.188;2022-12-29T15:06:49;444.63;;;297.90;;
26201;SDS011;13944;28.562;77.188;2022-12-29T15:14:48;445.23;;;307.63;;
26201;SDS011;13944;28.562;77.188;2022-12-29T15:19:52;456.17;;;310.57;;
26201;SDS011;13944;28.562;77.188;2022-12-29T15:22:19;455.00;;;309.53;;
26201;SDS011;13944;28.562;77.188;2022-12-29T15:24:45;461.33;;;310.57;;
26201;SDS011;13944;28.562;77.188;2022-12-29T15:27:13;453.00;;;310.20;;
26201;SDS011;13944;28.562;77.188;2022-12-29T15:29:41;450.07;;;309.07;;
26201;SDS011;13944;28.562;77.188;2022-12-29T15:32:16;446.70;;;307.70;;
26201;SDS011;13944;28.562;77.188;2022-12-29T15:34:43;451.37;;;314.83;;
26201;SDS011;13944;28.562;77.188;2022-12-29T15:37:16;458.73;;;313.13;;
26201;SDS011;13944;28.562;77.188;2022-12-29T15:39:43;458.20;;;314.70;;
26201;SDS011;13944;28.562;77.188;2022-12-29T15:44:52;454.63;;;317.77;;
26201;SDS011;13944;28.562;77.188;2022-12-29T15:47:25;461.90;;;316.37;;
26201;SDS011;13944;28.562;77.188;2022-12-29T15:52:39;456.77;;;316.40;;
26201;SDS011;13944;28.562;77.188;2022-12-29T15:55:06;465.63;;;320.33;;
26201;SDS011;13944;28.562;77.188;2022-12-29T15:57:44;468.40;;;323.20;;
26201;SDS011;13944;28.562;77.188;2022-12-29T16:00:21;461.43;;;322.17;;
26201;SDS011;13944;28.562;77.188;2022-12-29T16:02:48;465.20;;;322.13;;
26201;SDS011;13944;28.562;77.188;2022-12-29T16:05:16;472.63;;;325.33;;
26201;SDS011;13944;28.562;77.188;2022-12-29T16:07:56;470.57;;;328.87;;
26201;SDS011;13944;28.562;77.188;2022-12-29T16:10:31;473.60;;;327.53;;
26201;SDS011;13944;28.562;77.188;2022-12-29T16:13:10;476.40;;;336.47;;
26201;SDS011;13944;28.562;77.188;2022-12-29T16:15:38;488.00;;;337.73;;